Latest Coastal Weather Observations for Lombadina

IDW60701

Issued at 8:02 pm WST Monday 27 April 2015 (issued every 10 minutes, with the page automatically refreshed every 10 minutes)

About coastal observations | Map of coastal stations | Coastal observations for WA | Marine services | Other Formats
Station Details ID: 503016 Name: LOMBADINA AIRSTRIP Lat: -16.52 Lon: 122.92 Height: 42.0 m
Data from the previous 72 hours. | See also: Recent months for locations in Western Australia
Date/Time
WST
Temp

°C
Wind Pressure Rain
since 9am
mm
Weather Cloud Vis
km
Sea
Height
m
Swell
Dir
 
Speed
knots
Gust
knots
hPa Trend Height
m
Period
s
Dir
27/08:00pm 20.5 CALM 0 0 1014.4 - 0.0 - - 10 - - - -
27/07:30pm 20.6 CALM 0 0 1014.2 - 0.0 - - 10 - - - -
27/07:00pm 21.1 CALM 0 0 1013.9 - 0.0 - - 10 - - - -
27/06:30pm 22.3 CALM 0 0 1013.5 - 0.0 - - 10 - - - -
27/06:00pm 23.2 CALM 0 0 1013.3 - 0.0 - - 10 - - - -
27/05:30pm 25.4 CALM 0 0 1013.2 - 0.0 - - 10 - - - -
27/05:00pm 28.4 CALM 0 2 1012.9 - 0.0 - - 10 - - - -
27/04:30pm 29.2 SE 2 5 1013.0 - 0.0 - - 10 - - - -
27/04:00pm 29.3 SE 4 8 1012.7 - 0.0 - - 10 - - - -
27/03:30pm 29.6 SE 5 10 1012.3 - 0.0 - - 10 - - - -
27/03:00pm 29.9 SE 5 9 1012.1 - 0.0 - - 10 - - - -
27/02:30pm 29.9 ESE 5 9 1012.0 - 0.0 - - 10 - - - -
27/02:00pm 30.1 ESE 6 12 1011.9 - 0.0 - - 10 - - - -
27/01:30pm 30.1 E 7 11 1012.1 - 0.0 - - 10 - - - -
27/01:00pm 30.4 E 7 14 1012.4 - 0.0 - - 10 - - - -
27/12:30pm 30.4 ESE 7 15 1012.8 - 0.0 - - 10 - - - -
27/12:00pm 29.9 E 9 15 1013.3 - 0.0 - - 10 - - - -
27/11:30am 30.1 E 9 13 1013.6 - 0.0 - - 10 - - - -
27/11:00am 30.6 E 8 14 1014.1 - 0.0 - - 10 - - - -
27/10:30am 29.4 E 9 15 1014.5 - 0.0 - Partly cloudy 10 - - - -
27/10:00am 30.0 E 8 13 1014.6 - 0.0 - Partly cloudy 10 - - - -
27/09:30am 29.5 ESE 9 17 1014.7 - 0.0 - Partly cloudy 10 - - - -
27/09:00am 29.9 ENE 5 13 1014.4 - 0.0 - Mostly clear 10 - - - -
27/08:30am 29.4 ENE 5 8 1014.5 - 0.0 - - 10 - - - -
27/08:00am 28.3 ESE 3 6 1014.3 - 0.0 - - 10 - - - -
27/07:30am 26.7 ESE 3 6 1014.2 - 0.0 - - 10 - - - -
27/07:00am 24.4 SE 4 6 1014.0 - 0.0 - - 10 - - - -
27/06:30am 21.8 SSE 3 5 1013.8 - 0.0 - - 10 - - - -
27/06:00am 21.1 SSE 2 4 1013.5 - 0.0 - - 10 - - - -
27/05:30am 21.5 S 1 4 1013.0 - 0.0 - - 10 - - - -
27/05:00am 21.7 SSE 2 5 1012.4 - 0.0 - - 10 - - - -
27/04:30am 22.7 SSE 4 7 1012.2 - 0.0 - - 10 - - - -
27/04:00am 23.0 SE 3 6 1012.1 - 0.0 - - 10 - - - -
27/03:30am 23.0 SSE 3 6 1012.3 - 0.0 - - 10 - - - -
27/03:00am 21.8 SSE 1 4 1012.2 - 0.0 - - 10 - - - -
27/02:30am 23.8 S 1 4 1012.3 - 0.0 - - 10 - - - -
27/02:00am 23.9 SSW 3 5 1012.6 - 0.0 - - 10 - - - -
27/01:30am 23.4 S 2 6 1012.6 - 0.0 - - 10 - - - -
27/01:00am 23.4 S 3 5 1013.1 - 0.0 - - 10 - - - -
27/12:30am 22.1 SSE 1 3 1013.2 - 0.0 - - 10 - - - -
27/12:00am 21.6 S 1 3 1013.5 - 0.0 - - 10 - - - -
 
Date/Time
WST
Temp

°C
Wind Pressure Rain
since 9am
mm
Weather Cloud Vis
km
Sea
Height
m
Swell
Dir
 
Speed
knots
Gust
knots
hPa Trend Height
m
Period
s
Dir
26/11:30pm 21.8 S 3 4 1013.8 - 0.0 - - 10 - - - -
26/11:00pm 22.5 CALM 0 0 1013.8 - 0.0 - - 10 - - - -
26/10:30pm 22.5 CALM 0 0 1013.7 - 0.0 - - 10 - - - -
26/10:00pm 23.0 CALM 0 0 1013.7 - 0.0 - - 10 - - - -
26/09:30pm 23.1 CALM 0 2 1013.9 - 0.0 - - 10 - - - -
26/09:00pm 23.5 CALM 0 0 1013.8 - 0.0 - - 10 - - - -
26/08:30pm 25.0 N 2 4 1013.9 - 0.0 - - 10 - - - -
26/08:00pm 24.7 N 2 3 1013.9 - 0.0 - - 10 - - - -
26/07:30pm 23.8 N 2 3 1013.9 - 0.0 - - 10 - - - -
26/07:00pm 23.5 CALM 0 2 1013.9 - 0.0 - - 10 - - - -
26/06:30pm 24.1 CALM 0 0 1013.5 - 0.0 - - 10 - - - -
26/06:00pm 26.1 ENE 3 3 1012.9 - 0.0 - - 10 - - - -
26/05:30pm 28.1 NE 2 3 1012.8 - 0.0 - - 10 - - - -
26/05:00pm 29.5 ENE 4 6 1012.4 - 0.0 - - 10 - - - -
26/04:30pm 30.4 ENE 5 9 1012.0 - 0.0 - - 10 - - - -
26/04:00pm 31.0 ENE 5 9 1011.5 - 0.0 - - 10 - - - -
26/03:30pm 31.3 ENE 7 11 1011.3 - 0.0 - - 10 - - - -
26/03:00pm 31.3 ENE 7 12 1011.2 - 0.0 - - 10 - - - -
26/02:30pm 30.3 ENE 7 12 1011.1 - 0.0 - - 10 - - - -
26/02:00pm 30.1 ENE 9 13 1011.1 - 0.0 - Partly cloudy 10 - - - -
26/01:30pm 31.0 ENE 8 14 1011.2 - 0.0 - Partly cloudy 10 - - - -
26/01:00pm 31.2 ENE 9 15 1011.3 - 0.0 - - 10 - - - -
26/12:30pm 31.3 E 10 16 1011.7 - 0.0 - Partly cloudy 10 - - - -
26/12:00pm 31.6 ESE 7 15 1011.9 - 0.0 - - 10 - - - -
26/11:30am 30.6 SE 7 11 1012.3 - 0.0 - - 10 - - - -
26/11:00am 29.8 SE 8 15 1012.7 - 0.0 - - 10 - - - -
26/10:30am 29.9 ESE 8 13 1012.9 - 0.0 - - 10 - - - -
26/10:00am 29.6 SE 9 16 1013.1 - 0.0 - - 10 - - - -
26/09:30am 29.1 SE 9 17 1013.1 - 0.0 - - 10 - - - -
26/09:00am 28.8 SE 8 13 1013.2 - 0.0 - - 10 - - - -
26/08:30am 28.3 SE 8 14 1013.0 - 0.0 - - 10 - - - -
26/08:00am 28.3 SE 9 18 1012.6 - 0.0 - - 10 - - - -
26/07:30am 26.8 SSE 5 9 1012.5 - 0.0 - - 10 - - - -
26/07:00am 26.0 SSE 6 10 1012.2 - 0.0 - - 10 - - - -
26/06:30am 25.3 SSE 5 9 1011.9 - 0.0 - - 10 - - - -
26/06:00am 25.3 SE 5 7 1011.4 - 0.0 - - 10 - - - -
26/05:30am 25.8 SE 5 8 1011.1 - 0.0 - - 10 - - - -
26/05:00am 25.1 SE 4 7 1011.0 - 0.0 - - 10 - - - -
26/04:30am 25.0 SE 4 7 1010.8 - 0.0 - - 10 - - - -
26/04:00am 25.1 SSE 4 7 1010.8 - 0.0 - - 10 - - - -
26/03:30am 25.1 SSE 5 8 1010.9 - 0.0 - - 10 - - - -
26/03:00am 25.2 SSE 5 9 1010.9 - 0.0 - - 10 - - - -
26/02:30am 25.3 SSE 4 6 1011.0 - 0.0 - - 10 - - - -
26/02:00am 25.2 SSE 4 6 1011.2 - 0.0 - - 10 - - - -
26/01:30am 24.4 SSE 3 5 1011.5 - 0.0 - - 10 - - - -
26/01:00am 22.2 SSW 1 3 1011.8 - 0.0 - - 10 - - - -
26/12:30am 22.8 CALM 0 0 1012.1 - 0.0 - Partly cloudy 10 - - - -
26/12:00am 23.0 CALM 0 0 1012.4 - 0.0 - - 10 - - - -
 
Date/Time
WST
Temp

°C
Wind Pressure Rain
since 9am
mm
Weather Cloud Vis
km
Sea
Height
m
Swell
Dir
 
Speed
knots
Gust
knots
hPa Trend Height
m
Period
s
Dir
25/11:30pm 23.5 CALM 0 0 1012.5 - 0.0 - - 10 - - - -
25/11:00pm 23.9 CALM 0 0 1012.6 - 0.0 - Partly cloudy 10 - - - -
25/10:30pm 23.6 CALM 0 2 1012.7 - 0.0 - Partly cloudy 10 - - - -
25/10:00pm 24.0 CALM 0 1 1012.9 - 0.0 - Partly cloudy 10 - - - -
25/09:30pm 24.6 CALM 0 1 1012.8 - 0.0 - - 10 - - - -
25/09:00pm 25.2 SSE 1 3 1012.9 - 0.0 - - 10 - - - -
25/08:30pm 25.3 CALM 0 2 1012.9 - 0.0 - - 10 - - - -
25/08:00pm 25.5 S 2 4 1012.9 - 0.0 - - 10 - - - -
25/07:30pm 25.6 CALM 0 0 1012.6 - 0.0 - Partly cloudy 10 - - - -
25/07:00pm 25.8 CALM 0 1 1012.3 - 0.0 - - 10 - - - -
25/06:30pm 25.8 CALM 0 0 1011.9 - 0.0 - - 10 - - - -
25/06:00pm 26.1 CALM 0 0 1011.6 - 0.0 - - 10 - - - -
25/05:30pm 27.1 CALM 0 0 1011.2 - 0.0 - - 10 - - - -
25/05:00pm 28.0 CALM 0 0 1010.9 - 0.0 - - 10 - - - -
25/04:30pm 28.7 S 1 2 1010.5 - 0.0 - - 10 - - - -
25/04:00pm 29.0 SSE 1 3 1010.3 - 0.0 - Partly cloudy 10 - - - -
25/03:30pm 29.2 SSE 1 3 1010.0 - 0.0 - Partly cloudy 10 - - - -
25/03:00pm 29.3 SE 3 4 1010.0 - 0.0 - - 10 - - - -
25/02:30pm 29.8 SE 5 8 1009.8 - 0.0 - - 10 - - - -
25/02:00pm 29.9 SE 5 10 1009.7 - 0.0 - - 10 - - - -
25/01:30pm 29.5 SE 6 11 1010.0 - 0.0 - - 10 - - - -
25/01:00pm 29.6 SE 7 14 1010.2 - 0.0 - - 10 - - - -
25/12:30pm 29.9 SE 8 14 1010.4 - 0.0 - - 10 - - - -
25/12:00pm 29.6 SE 7 14 1010.6 - 0.0 - - 10 - - - -
25/11:30am 29.6 SE 8 15 1010.9 - 0.0 - - 10 - - - -
25/11:00am 29.8 SE 9 15 1011.3 - 0.0 - - 10 - - - -
25/10:30am 29.0 SE 9 20 1011.5 - 0.0 - - 10 - - - -
25/10:00am 28.8 SE 8 13 1011.7 - 0.0 - - 10 - - - -
25/09:30am 28.8 ESE 8 16 1011.9 - 0.0 - - 10 - - - -
25/09:00am 29.2 SE 9 14 1012.0 - 0.0 - - 10 - - - -
25/08:30am 28.9 ESE 7 19 1011.9 - 0.0 - - 10 - - - -
25/08:00am 29.4 ESE 8 15 1011.5 - 0.0 - - 10 - - - -
25/07:30am 28.7 ESE 10 18 1011.5 - 0.0 - - 10 - - - -
25/07:00am 28.6 ESE 8 15 1011.2 - 0.0 - - 10 - - - -
25/06:30am 28.1 ESE 8 14 1011.1 - 0.0 - - 10 - - - -
25/06:00am 28.3 ESE 8 16 1010.5 - 0.0 - - 10 - - - -
25/05:30am 28.2 ESE 8 14 1010.2 - 0.0 - - 10 - - - -
25/05:00am 25.9 SE 4 8 1010.0 - 0.0 - Partly cloudy 10 - - - -
25/04:30am 25.5 SE 3 6 1010.0 - 0.0 - Partly cloudy 10 - - - -
25/04:00am 25.6 SE 3 6 1010.2 - 0.0 - Cloudy 10 - - - -
25/03:30am 25.9 SSE 3 5 1010.1 - 0.0 - Cloudy 10 - - - -
25/03:00am 25.9 SE 2 5 1010.1 - 0.0 - Cloudy 10 - - - -
25/02:30am 26.2 SSE 5 8 1010.1 - 0.0 - Cloudy 10 - - - -
25/02:00am 26.2 S 3 7 1010.4 - 0.0 - Cloudy 10 - - - -
25/01:30am 25.5 S 1 3 1010.6 - 0.0 - Cloudy 10 - - - -
25/01:00am 25.5 SSW 1 5 1010.9 - 0.0 - Partly cloudy 10 - - - -
25/12:30am 24.9 SSW 2 4 1011.0 - 0.0 - Partly cloudy 10 - - - -
25/12:00am 24.7 CALM 0 2 1011.1 - 0.0 - - 10 - - - -
 
Date/Time
WST
Temp

°C
Wind Pressure Rain
since 9am
mm
Weather Cloud Vis
km
Sea
Height
m
Swell
Dir
 
Speed
knots
Gust
knots
hPa Trend Height
m
Period
s
Dir
24/11:30pm 25.1 SSW 2 3 1011.3 - 0.0 - Partly cloudy 10 - - - -
24/11:00pm 25.2 CALM 0 0 1011.3 - 0.0 - - 10 - - - -
24/10:30pm 25.6 S 1 3 1011.2 - 0.0 - - 10 - - - -
24/10:00pm 25.0 CALM 0 0 1011.3 - 0.0 - - 10 - - - -
24/09:30pm 25.9 S 1 4 1011.6 - 0.0 - - 10 - - - -
24/09:00pm 25.5 SSE 1 3 1011.3 - 0.0 - - 10 - - - -
24/08:30pm 26.0 CALM 0 1 1011.2 - 0.0 - - 10 - - - -

Other Formats:

Comma delimited format used in spreadsheet applications
http://www.bom.gov.au/fwo/IDW60701/IDW60701.99206.axf

JavaScript Object Notation format (JSON) in row-major order
http://www.bom.gov.au/fwo/IDW60701/IDW60701.99206.json